sensor_id;sensor_type;location;lat;lon;timestamp;P1;durP1;ratioP1;P2;durP2;ratioP2
9160;SDS011;4615;51.340;8.288;2023-11-18T00:02:04;10.90;;;9.80;;
9160;SDS011;4615;51.340;8.288;2023-11-18T00:04:31;11.68;;;10.02;;
9160;SDS011;4615;51.340;8.288;2023-11-18T00:06:57;12.00;;;10.27;;
9160;SDS011;4615;51.340;8.288;2023-11-18T00:09:24;11.38;;;10.15;;
9160;SDS011;4615;51.340;8.288;2023-11-18T00:11:52;11.95;;;10.43;;
9160;SDS011;4615;51.340;8.288;2023-11-18T00:14:18;12.43;;;10.48;;
9160;SDS011;4615;51.340;8.288;2023-11-18T00:16:46;12.43;;;10.33;;
9160;SDS011;4615;51.340;8.288;2023-11-18T00:19:12;11.60;;;10.00;;
9160;SDS011;4615;51.340;8.288;2023-11-18T00:21:38;11.27;;;10.13;;
9160;SDS011;4615;51.340;8.288;2023-11-18T00:24:05;11.25;;;10.00;;
9160;SDS011;4615;51.340;8.288;2023-11-18T00:26:33;11.80;;;10.50;;
9160;SDS011;4615;51.340;8.288;2023-11-18T00:29:00;12.30;;;11.00;;
9160;SDS011;4615;51.340;8.288;2023-11-18T00:31:27;12.75;;;11.23;;
9160;SDS011;4615;51.340;8.288;2023-11-18T00:33:54;14.88;;;10.25;;
9160;SDS011;4615;51.340;8.288;2023-11-18T00:36:21;12.17;;;10.57;;
9160;SDS011;4615;51.340;8.288;2023-11-18T00:38:47;12.77;;;10.68;;
9160;SDS011;4615;51.340;8.288;2023-11-18T00:41:14;13.43;;;10.68;;
9160;SDS011;4615;51.340;8.288;2023-11-18T00:43:42;13.43;;;10.88;;
9160;SDS011;4615;51.340;8.288;2023-11-18T00:46:10;12.70;;;11.32;;
9160;SDS011;4615;51.340;8.288;2023-11-18T00:48:36;13.52;;;10.85;;
9160;SDS011;4615;51.340;8.288;2023-11-18T00:51:03;13.40;;;11.00;;
9160;SDS011;4615;51.340;8.288;2023-11-18T00:53:30;13.20;;;11.23;;
9160;SDS011;4615;51.340;8.288;2023-11-18T00:55:56;13.75;;;10.90;;
9160;SDS011;4615;51.340;8.288;2023-11-18T00:58:22;13.07;;;10.93;;
9160;SDS011;4615;51.340;8.288;2023-11-18T01:00:49;12.52;;;11.15;;
9160;SDS011;4615;51.340;8.288;2023-11-18T01:03:16;11.90;;;10.68;;
9160;SDS011;4615;51.340;8.288;2023-11-18T01:05:43;13.10;;;11.23;;
9160;SDS011;4615;51.340;8.288;2023-11-18T01:08:09;13.52;;;11.32;;
9160;SDS011;4615;51.340;8.288;2023-11-18T01:10:36;12.80;;;11.25;;
9160;SDS011;4615;51.340;8.288;2023-11-18T01:13:03;19.75;;;10.98;;
9160;SDS011;4615;51.340;8.288;2023-11-18T01:15:31;17.27;;;11.50;;
9160;SDS011;4615;51.340;8.288;2023-11-18T01:17:58;13.67;;;11.43;;
9160;SDS011;4615;51.340;8.288;2023-11-18T01:20:28;13.68;;;11.23;;
9160;SDS011;4615;51.340;8.288;2023-11-18T01:22:55;15.40;;;11.88;;
9160;SDS011;4615;51.340;8.288;2023-11-18T01:25:21;14.80;;;10.20;;
9160;SDS011;4615;51.340;8.288;2023-11-18T01:27:47;12.70;;;11.02;;
9160;SDS011;4615;51.340;8.288;2023-11-18T01:30:14;14.10;;;11.43;;
9160;SDS011;4615;51.340;8.288;2023-11-18T01:32:40;12.55;;;11.02;;
9160;SDS011;4615;51.340;8.288;2023-11-18T01:35:07;14.02;;;10.50;;
9160;SDS011;4615;51.340;8.288;2023-11-18T01:37:37;13.68;;;10.75;;
9160;SDS011;4615;51.340;8.288;2023-11-18T01:40:04;13.13;;;11.03;;
9160;SDS011;4615;51.340;8.288;2023-11-18T01:42:32;14.57;;;10.52;;
9160;SDS011;4615;51.340;8.288;2023-11-18T01:44:58;12.13;;;9.98;;
9160;SDS011;4615;51.340;8.288;2023-11-18T01:47:28;11.80;;;10.60;;
9160;SDS011;4615;51.340;8.288;2023-11-18T01:49:57;14.43;;;10.73;;
9160;SDS011;4615;51.340;8.288;2023-11-18T01:52:24;11.48;;;10.27;;
9160;SDS011;4615;51.340;8.288;2023-11-18T01:54:52;13.73;;;11.07;;
9160;SDS011;4615;51.340;8.288;2023-11-18T01:57:20;12.30;;;11.00;;
9160;SDS011;4615;51.340;8.288;2023-11-18T01:59:47;13.00;;;10.95;;
9160;SDS011;4615;51.340;8.288;2023-11-18T02:02:13;12.25;;;10.52;;
9160;SDS011;4615;51.340;8.288;2023-11-18T02:04:40;12.07;;;10.88;;
9160;SDS011;4615;51.340;8.288;2023-11-18T02:07:06;12.20;;;10.90;;
9160;SDS011;4615;51.340;8.288;2023-11-18T02:09:34;12.33;;;10.23;;
9160;SDS011;4615;51.340;8.288;2023-11-18T02:12:05;11.50;;;10.30;;
9160;SDS011;4615;51.340;8.288;2023-11-18T02:14:35;12.82;;;10.55;;
9160;SDS011;4615;51.340;8.288;2023-11-18T02:17:05;12.07;;;10.55;;
9160;SDS011;4615;51.340;8.288;2023-11-18T02:19:34;12.98;;;11.15;;
9160;SDS011;4615;51.340;8.288;2023-11-18T02:22:01;12.63;;;10.65;;
9160;SDS011;4615;51.340;8.288;2023-11-18T02:24:27;11.63;;;10.00;;
9160;SDS011;4615;51.340;8.288;2023-11-18T02:26:57;13.53;;;10.37;;
9160;SDS011;4615;51.340;8.288;2023-11-18T02:29:24;13.63;;;10.80;;
9160;SDS011;4615;51.340;8.288;2023-11-18T02:31:52;13.00;;;10.75;;
9160;SDS011;4615;51.340;8.288;2023-11-18T02:34:22;11.73;;;10.38;;
9160;SDS011;4615;51.340;8.288;2023-11-18T02:36:50;11.68;;;10.48;;
9160;SDS011;4615;51.340;8.288;2023-11-18T02:39:20;11.30;;;10.10;;
9160;SDS011;4615;51.340;8.288;2023-11-18T02:41:48;11.75;;;10.50;;
9160;SDS011;4615;51.340;8.288;2023-11-18T02:44:19;12.10;;;10.80;;
9160;SDS011;4615;51.340;8.288;2023-11-18T02:46:48;16.80;;;11.40;;
9160;SDS011;4615;51.340;8.288;2023-11-18T02:49:14;16.02;;;11.25;;
9160;SDS011;4615;51.340;8.288;2023-11-18T02:51:42;15.90;;;10.82;;
9160;SDS011;4615;51.340;8.288;2023-11-18T02:54:12;16.90;;;11.03;;
9160;SDS011;4615;51.340;8.288;2023-11-18T02:56:41;17.15;;;11.25;;
9160;SDS011;4615;51.340;8.288;2023-11-18T02:59:08;12.07;;;10.45;;
9160;SDS011;4615;51.340;8.288;2023-11-18T03:01:36;11.77;;;9.90;;
9160;SDS011;4615;51.340;8.288;2023-11-18T03:04:04;11.40;;;10.20;;
9160;SDS011;4615;51.340;8.288;2023-11-18T03:06:31;11.40;;;10.20;;
9160;SDS011;4615;51.340;8.288;2023-11-18T03:08:57;13.45;;;10.85;;
9160;SDS011;4615;51.340;8.288;2023-11-18T03:11:24;12.10;;;10.13;;
9160;SDS011;4615;51.340;8.288;2023-11-18T03:13:50;11.75;;;10.55;;
9160;SDS011;4615;51.340;8.288;2023-11-18T03:16:16;12.02;;;10.73;;
9160;SDS011;4615;51.340;8.288;2023-11-18T03:18:44;11.25;;;10.13;;
9160;SDS011;4615;51.340;8.288;2023-11-18T03:21:11;10.63;;;9.63;;
9160;SDS011;4615;51.340;8.288;2023-11-18T03:23:38;9.70;;;8.70;;
9160;SDS011;4615;51.340;8.288;2023-11-18T03:26:05;9.27;;;8.32;;
9160;SDS011;4615;51.340;8.288;2023-11-18T03:28:32;10.40;;;8.90;;
9160;SDS011;4615;51.340;8.288;2023-11-18T03:30:58;9.63;;;8.63;;
9160;SDS011;4615;51.340;8.288;2023-11-18T03:33:25;10.52;;;9.43;;
9160;SDS011;4615;51.340;8.288;2023-11-18T03:35:53;10.75;;;9.73;;
9160;SDS011;4615;51.340;8.288;2023-11-18T03:38:20;11.00;;;9.90;;
9160;SDS011;4615;51.340;8.288;2023-11-18T03:40:46;14.30;;;10.30;;
9160;SDS011;4615;51.340;8.288;2023-11-18T03:43:12;14.43;;;10.13;;
9160;SDS011;4615;51.340;8.288;2023-11-18T03:45:39;11.07;;;9.70;;
9160;SDS011;4615;51.340;8.288;2023-11-18T03:48:06;9.77;;;8.80;;
9160;SDS011;4615;51.340;8.288;2023-11-18T03:50:32;10.07;;;9.07;;
9160;SDS011;4615;51.340;8.288;2023-11-18T03:53:01;11.52;;;9.32;;
9160;SDS011;4615;51.340;8.288;2023-11-18T03:55:28;11.10;;;9.90;;
9160;SDS011;4615;51.340;8.288;2023-11-18T03:57:54;11.15;;;10.05;;
9160;SDS011;4615;51.340;8.288;2023-11-18T04:00:22;10.60;;;9.50;;
9160;SDS011;4615;51.340;8.288;2023-11-18T04:02:54;10.65;;;9.27;;
9160;SDS011;4615;51.340;8.288;2023-11-18T04:05:20;10.10;;;9.02;;
9160;SDS011;4615;51.340;8.288;2023-11-18T04:07:47;9.88;;;8.88;;
9160;SDS011;4615;51.340;8.288;2023-11-18T04:10:14;9.37;;;8.40;;
9160;SDS011;4615;51.340;8.288;2023-11-18T04:12:43;9.55;;;8.57;;
9160;SDS011;4615;51.340;8.288;2023-11-18T04:15:11;10.73;;;9.63;;
9160;SDS011;4615;51.340;8.288;2023-11-18T04:17:40;10.17;;;9.10;;
9160;SDS011;4615;51.340;8.288;2023-11-18T04:20:07;12.25;;;10.18;;
9160;SDS011;4615;51.340;8.288;2023-11-18T04:22:37;11.15;;;9.90;;
9160;SDS011;4615;51.340;8.288;2023-11-18T04:25:04;8.98;;;8.07;;
9160;SDS011;4615;51.340;8.288;2023-11-18T04:27:33;11.38;;;9.13;;
9160;SDS011;4615;51.340;8.288;2023-11-18T04:29:59;12.03;;;10.40;;
9160;SDS011;4615;51.340;8.288;2023-11-18T04:32:25;11.32;;;10.05;;
9160;SDS011;4615;51.340;8.288;2023-11-18T04:34:52;12.10;;;9.98;;
9160;SDS011;4615;51.340;8.288;2023-11-18T04:37:18;10.88;;;9.70;;
9160;SDS011;4615;51.340;8.288;2023-11-18T04:39:44;10.93;;;9.30;;
9160;SDS011;4615;51.340;8.288;2023-11-18T04:42:11;10.37;;;9.30;;
9160;SDS011;4615;51.340;8.288;2023-11-18T04:44:39;10.63;;;9.30;;
9160;SDS011;4615;51.340;8.288;2023-11-18T04:47:05;10.70;;;9.48;;
9160;SDS011;4615;51.340;8.288;2023-11-18T04:49:31;11.23;;;10.02;;
9160;SDS011;4615;51.340;8.288;2023-11-18T04:51:58;11.70;;;9.90;;
9160;SDS011;4615;51.340;8.288;2023-11-18T04:54:24;10.27;;;9.27;;
9160;SDS011;4615;51.340;8.288;2023-11-18T04:56:50;10.38;;;9.30;;
9160;SDS011;4615;51.340;8.288;2023-11-18T04:59:17;10.45;;;9.35;;
9160;SDS011;4615;51.340;8.288;2023-11-18T05:01:45;10.10;;;9.10;;
9160;SDS011;4615;51.340;8.288;2023-11-18T05:04:11;10.73;;;9.63;;
9160;SDS011;4615;51.340;8.288;2023-11-18T05:06:37;10.80;;;9.70;;
9160;SDS011;4615;51.340;8.288;2023-11-18T05:09:04;10.98;;;9.05;;
9160;SDS011;4615;51.340;8.288;2023-11-18T05:11:32;10.63;;;9.10;;
9160;SDS011;4615;51.340;8.288;2023-11-18T05:13:58;10.43;;;9.38;;
9160;SDS011;4615;51.340;8.288;2023-11-18T05:16:25;9.67;;;8.63;;
9160;SDS011;4615;51.340;8.288;2023-11-18T05:18:53;9.40;;;8.50;;
9160;SDS011;4615;51.340;8.288;2023-11-18T05:21:20;10.00;;;9.00;;
9160;SDS011;4615;51.340;8.288;2023-11-18T05:23:46;9.98;;;8.88;;
9160;SDS011;4615;51.340;8.288;2023-11-18T05:26:14;11.82;;;9.82;;
9160;SDS011;4615;51.340;8.288;2023-11-18T05:28:40;10.32;;;9.27;;
9160;SDS011;4615;51.340;8.288;2023-11-18T05:31:09;9.88;;;8.88;;
9160;SDS011;4615;51.340;8.288;2023-11-18T05:33:35;9.43;;;8.50;;
9160;SDS011;4615;51.340;8.288;2023-11-18T05:36:03;8.90;;;8.00;;
9160;SDS011;4615;51.340;8.288;2023-11-18T05:38:31;9.73;;;8.73;;
9160;SDS011;4615;51.340;8.288;2023-11-18T05:41:00;9.93;;;8.90;;
9160;SDS011;4615;51.340;8.288;2023-11-18T05:43:28;10.13;;;9.00;;
9160;SDS011;4615;51.340;8.288;2023-11-18T05:46:01;11.23;;;9.17;;
9160;SDS011;4615;51.340;8.288;2023-11-18T05:48:45;9.95;;;8.55;;
9160;SDS011;4615;51.340;8.288;2023-11-18T05:51:13;9.73;;;8.73;;
9160;SDS011;4615;51.340;8.288;2023-11-18T05:53:40;9.25;;;8.35;;
9160;SDS011;4615;51.340;8.288;2023-11-18T05:56:07;9.20;;;8.25;;
9160;SDS011;4615;51.340;8.288;2023-11-18T05:58:33;9.43;;;7.88;;
9160;SDS011;4615;51.340;8.288;2023-11-18T06:01:00;9.10;;;8.10;;
9160;SDS011;4615;51.340;8.288;2023-11-18T06:03:26;10.25;;;8.55;;
9160;SDS011;4615;51.340;8.288;2023-11-18T06:05:53;10.88;;;9.13;;
9160;SDS011;4615;51.340;8.288;2023-11-18T06:08:20;10.63;;;9.23;;
9160;SDS011;4615;51.340;8.288;2023-11-18T06:10:47;10.77;;;8.63;;
9160;SDS011;4615;51.340;8.288;2023-11-18T06:13:14;9.88;;;8.60;;
9160;SDS011;4615;51.340;8.288;2023-11-18T06:15:41;10.48;;;9.48;;
9160;SDS011;4615;51.340;8.288;2023-11-18T06:18:08;12.40;;;10.23;;
9160;SDS011;4615;51.340;8.288;2023-11-18T06:20:34;10.93;;;9.73;;
9160;SDS011;4615;51.340;8.288;2023-11-18T06:23:03;11.07;;;9.88;;
9160;SDS011;4615;51.340;8.288;2023-11-18T06:25:31;14.68;;;11.27;;
9160;SDS011;4615;51.340;8.288;2023-11-18T06:27:58;12.50;;;10.95;;
9160;SDS011;4615;51.340;8.288;2023-11-18T06:30:25;10.13;;;9.02;;
9160;SDS011;4615;51.340;8.288;2023-11-18T06:32:51;10.90;;;9.48;;
9160;SDS011;4615;51.340;8.288;2023-11-18T06:35:17;11.13;;;9.02;;
9160;SDS011;4615;51.340;8.288;2023-11-18T06:37:46;11.25;;;8.65;;
9160;SDS011;4615;51.340;8.288;2023-11-18T06:40:12;9.93;;;8.60;;
9160;SDS011;4615;51.340;8.288;2023-11-18T06:42:45;9.50;;;8.50;;
9160;SDS011;4615;51.340;8.288;2023-11-18T06:45:12;9.23;;;8.00;;
9160;SDS011;4615;51.340;8.288;2023-11-18T06:47:38;8.70;;;7.80;;
9160;SDS011;4615;51.340;8.288;2023-11-18T06:50:08;9.57;;;8.45;;
9160;SDS011;4615;51.340;8.288;2023-11-18T06:52:36;10.00;;;8.23;;
9160;SDS011;4615;51.340;8.288;2023-11-18T06:55:03;9.93;;;8.45;;
9160;SDS011;4615;51.340;8.288;2023-11-18T06:57:30;9.57;;;8.30;;
9160;SDS011;4615;51.340;8.288;2023-11-18T06:59:58;9.55;;;8.55;;
9160;SDS011;4615;51.340;8.288;2023-11-18T07:02:24;9.30;;;8.30;;
9160;SDS011;4615;51.340;8.288;2023-11-18T07:04:51;10.27;;;8.85;;
9160;SDS011;4615;51.340;8.288;2023-11-18T07:07:17;9.90;;;8.90;;
9160;SDS011;4615;51.340;8.288;2023-11-18T07:09:43;9.73;;;8.73;;
9160;SDS011;4615;51.340;8.288;2023-11-18T07:12:10;10.27;;;8.45;;
9160;SDS011;4615;51.340;8.288;2023-11-18T07:14:37;10.00;;;9.00;;
9160;SDS011;4615;51.340;8.288;2023-11-18T07:17:04;10.27;;;8.80;;
9160;SDS011;4615;51.340;8.288;2023-11-18T07:19:31;9.93;;;8.93;;
9160;SDS011;4615;51.340;8.288;2023-11-18T07:21:58;9.60;;;8.60;;
9160;SDS011;4615;51.340;8.288;2023-11-18T07:24:25;9.85;;;8.85;;
9160;SDS011;4615;51.340;8.288;2023-11-18T07:26:51;9.40;;;8.40;;
9160;SDS011;4615;51.340;8.288;2023-11-18T07:29:17;10.35;;;8.95;;
9160;SDS011;4615;51.340;8.288;2023-11-18T07:31:44;11.23;;;9.05;;
9160;SDS011;4615;51.340;8.288;2023-11-18T07:34:11;9.93;;;8.73;;
9160;SDS011;4615;51.340;8.288;2023-11-18T07:36:38;8.70;;;7.53;;
9160;SDS011;4615;51.340;8.288;2023-11-18T07:39:04;11.65;;;8.27;;
9160;SDS011;4615;51.340;8.288;2023-11-18T07:41:40;9.23;;;8.10;;
9160;SDS011;4615;51.340;8.288;2023-11-18T07:44:07;9.98;;;8.63;;
9160;SDS011;4615;51.340;8.288;2023-11-18T07:46:35;8.73;;;7.88;;
9160;SDS011;4615;51.340;8.288;2023-11-18T07:49:03;9.18;;;8.07;;
9160;SDS011;4615;51.340;8.288;2023-11-18T07:51:32;10.82;;;8.90;;
9160;SDS011;4615;51.340;8.288;2023-11-18T07:53:59;10.73;;;9.50;;
9160;SDS011;4615;51.340;8.288;2023-11-18T07:56:25;9.80;;;8.80;;
9160;SDS011;4615;51.340;8.288;2023-11-18T07:58:53;10.95;;;9.70;;
9160;SDS011;4615;51.340;8.288;2023-11-18T08:01:20;11.20;;;9.30;;
9160;SDS011;4615;51.340;8.288;2023-11-18T08:03:47;9.85;;;8.70;;
9160;SDS011;4615;51.340;8.288;2023-11-18T08:06:13;10.13;;;9.00;;
9160;SDS011;4615;51.340;8.288;2023-11-18T08:08:41;9.52;;;8.63;;
9160;SDS011;4615;51.340;8.288;2023-11-18T08:11:10;9.90;;;8.52;;
9160;SDS011;4615;51.340;8.288;2023-11-18T08:13:36;9.80;;;8.80;;
9160;SDS011;4615;51.340;8.288;2023-11-18T08:16:03;9.80;;;8.80;;
9160;SDS011;4615;51.340;8.288;2023-11-18T08:18:30;9.20;;;8.20;;
9160;SDS011;4615;51.340;8.288;2023-11-18T08:20:57;9.38;;;8.48;;
9160;SDS011;4615;51.340;8.288;2023-11-18T08:23:25;11.00;;;8.80;;
9160;SDS011;4615;51.340;8.288;2023-11-18T08:25:54;9.80;;;8.80;;
9160;SDS011;4615;51.340;8.288;2023-11-18T08:28:20;9.80;;;8.40;;
9160;SDS011;4615;51.340;8.288;2023-11-18T08:30:47;9.50;;;8.30;;
9160;SDS011;4615;51.340;8.288;2023-11-18T08:33:13;9.60;;;8.40;;
9160;SDS011;4615;51.340;8.288;2023-11-18T08:35:40;9.80;;;8.80;;
9160;SDS011;4615;51.340;8.288;2023-11-18T08:38:07;10.63;;;9.50;;
9160;SDS011;4615;51.340;8.288;2023-11-18T08:40:37;10.55;;;9.55;;
9160;SDS011;4615;51.340;8.288;2023-11-18T08:43:05;11.05;;;9.60;;
9160;SDS011;4615;51.340;8.288;2023-11-18T08:45:32;10.80;;;9.70;;
9160;SDS011;4615;51.340;8.288;2023-11-18T08:48:00;10.77;;;9.68;;
9160;SDS011;4615;51.340;8.288;2023-11-18T08:50:32;11.40;;;9.13;;
9160;SDS011;4615;51.340;8.288;2023-11-18T08:52:58;12.50;;;9.45;;
9160;SDS011;4615;51.340;8.288;2023-11-18T08:55:25;10.32;;;9.23;;
9160;SDS011;4615;51.340;8.288;2023-11-18T08:58:05;11.65;;;9.75;;
9160;SDS011;4615;51.340;8.288;2023-11-18T09:00:41;12.50;;;10.27;;
9160;SDS011;4615;51.340;8.288;2023-11-18T09:03:15;10.57;;;9.50;;
9160;SDS011;4615;51.340;8.288;2023-11-18T09:05:50;10.23;;;9.23;;
9160;SDS011;4615;51.340;8.288;2023-11-18T09:08:26;10.65;;;9.50;;
9160;SDS011;4615;51.340;8.288;2023-11-18T09:10:54;10.65;;;9.55;;
9160;SDS011;4615;51.340;8.288;2023-11-18T09:13:22;10.77;;;9.63;;
9160;SDS011;4615;51.340;8.288;2023-11-18T09:15:50;11.40;;;9.67;;
9160;SDS011;4615;51.340;8.288;2023-11-18T09:18:16;11.10;;;9.48;;
9160;SDS011;4615;51.340;8.288;2023-11-18T09:20:45;11.10;;;9.85;;
9160;SDS011;4615;51.340;8.288;2023-11-18T09:23:12;10.18;;;9.18;;
9160;SDS011;4615;51.340;8.288;2023-11-18T09:25:40;10.75;;;9.52;;
9160;SDS011;4615;51.340;8.288;2023-11-18T09:28:07;11.45;;;10.25;;
9160;SDS011;4615;51.340;8.288;2023-11-18T09:30:37;11.02;;;9.93;;
9160;SDS011;4615;51.340;8.288;2023-11-18T09:33:14;12.27;;;10.70;;
9160;SDS011;4615;51.340;8.288;2023-11-18T09:35:50;12.13;;;10.80;;
9160;SDS011;4615;51.340;8.288;2023-11-18T09:38:17;12.87;;;11.47;;
9160;SDS011;4615;51.340;8.288;2023-11-18T09:40:44;13.77;;;10.82;;
9160;SDS011;4615;51.340;8.288;2023-11-18T09:43:11;12.52;;;11.00;;
9160;SDS011;4615;51.340;8.288;2023-11-18T09:45:42;11.80;;;10.57;;
9160;SDS011;4615;51.340;8.288;2023-11-18T09:48:10;11.95;;;10.32;;
9160;SDS011;4615;51.340;8.288;2023-11-18T09:50:42;11.90;;;10.70;;
9160;SDS011;4615;51.340;8.288;2023-11-18T09:53:09;11.90;;;10.10;;
9160;SDS011;4615;51.340;8.288;2023-11-18T09:55:38;11.65;;;10.27;;
9160;SDS011;4615;51.340;8.288;2023-11-18T09:58:09;11.55;;;10.27;;
9160;SDS011;4615;51.340;8.288;2023-11-18T10:00:38;11.57;;;10.48;;
9160;SDS011;4615;51.340;8.288;2023-11-18T10:03:08;11.23;;;10.00;;
9160;SDS011;4615;51.340;8.288;2023-11-18T10:05:37;11.87;;;10.57;;
9160;SDS011;4615;51.340;8.288;2023-11-18T10:08:07;11.88;;;10.38;;
9160;SDS011;4615;51.340;8.288;2023-11-18T10:10:33;12.38;;;10.63;;
9160;SDS011;4615;51.340;8.288;2023-11-18T10:13:02;11.95;;;10.75;;
9160;SDS011;4615;51.340;8.288;2023-11-18T10:15:30;11.70;;;10.48;;
9160;SDS011;4615;51.340;8.288;2023-11-18T10:17:59;12.82;;;11.43;;
9160;SDS011;4615;51.340;8.288;2023-11-18T10:20:45;12.60;;;11.30;;
9160;SDS011;4615;51.340;8.288;2023-11-18T10:23:13;12.95;;;11.38;;
9160;SDS011;4615;51.340;8.288;2023-11-18T10:25:45;15.38;;;12.45;;
9160;SDS011;4615;51.340;8.288;2023-11-18T10:28:20;14.38;;;12.07;;
9160;SDS011;4615;51.340;8.288;2023-11-18T10:30:47;15.30;;;13.50;;
9160;SDS011;4615;51.340;8.288;2023-11-18T10:33:14;13.90;;;12.50;;
9160;SDS011;4615;51.340;8.288;2023-11-18T10:35:49;13.68;;;12.27;;
9160;SDS011;4615;51.340;8.288;2023-11-18T10:38:17;14.15;;;12.65;;
9160;SDS011;4615;51.340;8.288;2023-11-18T10:40:43;15.73;;;12.57;;
9160;SDS011;4615;51.340;8.288;2023-11-18T10:43:10;14.68;;;12.90;;
9160;SDS011;4615;51.340;8.288;2023-11-18T10:45:36;16.23;;;12.95;;
9160;SDS011;4615;51.340;8.288;2023-11-18T10:48:04;14.35;;;12.02;;
9160;SDS011;4615;51.340;8.288;2023-11-18T10:50:31;12.70;;;11.40;;
9160;SDS011;4615;51.340;8.288;2023-11-18T10:52:59;13.05;;;11.20;;
9160;SDS011;4615;51.340;8.288;2023-11-18T10:55:34;12.63;;;11.30;;
9160;SDS011;4615;51.340;8.288;2023-11-18T10:58:00;16.80;;;13.43;;
9160;SDS011;4615;51.340;8.288;2023-11-18T11:00:26;15.07;;;12.18;;
9160;SDS011;4615;51.340;8.288;2023-11-18T11:02:58;13.37;;;12.00;;
9160;SDS011;4615;51.340;8.288;2023-11-18T11:05:27;13.50;;;11.82;;
9160;SDS011;4615;51.340;8.288;2023-11-18T11:07:58;14.13;;;11.93;;
9160;SDS011;4615;51.340;8.288;2023-11-18T11:10:26;13.95;;;12.00;;
9160;SDS011;4615;51.340;8.288;2023-11-18T11:12:53;15.02;;;12.48;;
9160;SDS011;4615;51.340;8.288;2023-11-18T11:15:22;13.93;;;12.45;;
9160;SDS011;4615;51.340;8.288;2023-11-18T11:17:51;15.35;;;12.63;;
9160;SDS011;4615;51.340;8.288;2023-11-18T11:20:20;14.90;;;13.00;;
9160;SDS011;4615;51.340;8.288;2023-11-18T11:22:55;14.15;;;11.80;;
9160;SDS011;4615;51.340;8.288;2023-11-18T11:25:24;14.68;;;12.40;;
9160;SDS011;4615;51.340;8.288;2023-11-18T11:27:54;11.75;;;10.55;;
9160;SDS011;4615;51.340;8.288;2023-11-18T11:30:28;12.32;;;10.50;;
9160;SDS011;4615;51.340;8.288;2023-11-18T11:32:58;11.90;;;10.07;;
9160;SDS011;4615;51.340;8.288;2023-11-18T11:35:30;14.65;;;12.07;;
9160;SDS011;4615;51.340;8.288;2023-11-18T11:37:57;13.57;;;10.80;;
9160;SDS011;4615;51.340;8.288;2023-11-18T11:40:30;10.07;;;8.57;;
9160;SDS011;4615;51.340;8.288;2023-11-18T11:42:57;8.75;;;6.95;;
9160;SDS011;4615;51.340;8.288;2023-11-18T11:45:29;7.28;;;6.55;;
9160;SDS011;4615;51.340;8.288;2023-11-18T11:47:57;7.80;;;6.00;;
9160;SDS011;4615;51.340;8.288;2023-11-18T11:50:41;8.70;;;5.65;;
9160;SDS011;4615;51.340;8.288;2023-11-18T11:53:13;5.93;;;4.70;;
9160;SDS011;4615;51.340;8.288;2023-11-18T11:55:44;6.78;;;4.93;;
9160;SDS011;4615;51.340;8.288;2023-11-18T11:58:25;6.25;;;4.57;;
9160;SDS011;4615;51.340;8.288;2023-11-18T12:00:52;5.13;;;3.92;;
9160;SDS011;4615;51.340;8.288;2023-11-18T12:03:19;5.77;;;4.03;;
9160;SDS011;4615;51.340;8.288;2023-11-18T12:05:47;7.80;;;3.92;;
9160;SDS011;4615;51.340;8.288;2023-11-18T12:08:14;4.57;;;3.88;;
9160;SDS011;4615;51.340;8.288;2023-11-18T12:10:40;6.80;;;4.20;;
9160;SDS011;4615;51.340;8.288;2023-11-18T12:13:18;4.97;;;4.20;;
9160;SDS011;4615;51.340;8.288;2023-11-18T12:15:49;4.35;;;3.83;;
9160;SDS011;4615;51.340;8.288;2023-11-18T12:18:19;5.32;;;3.90;;
9160;SDS011;4615;51.340;8.288;2023-11-18T12:20:47;5.82;;;4.20;;
9160;SDS011;4615;51.340;8.288;2023-11-18T12:23:19;6.10;;;4.25;;
9160;SDS011;4615;51.340;8.288;2023-11-18T12:25:48;5.55;;;4.30;;
9160;SDS011;4615;51.340;8.288;2023-11-18T12:28:21;5.00;;;4.00;;
9160;SDS011;4615;51.340;8.288;2023-11-18T12:30:51;6.00;;;4.45;;
9160;SDS011;4615;51.340;8.288;2023-11-18T12:33:21;5.67;;;4.43;;
9160;SDS011;4615;51.340;8.288;2023-11-18T12:38:41;5.25;;;4.47;;
9160;SDS011;4615;51.340;8.288;2023-11-18T12:41:18;6.32;;;4.50;;
9160;SDS011;4615;51.340;8.288;2023-11-18T12:43:56;5.60;;;4.63;;
9160;SDS011;4615;51.340;8.288;2023-11-18T12:46:38;4.90;;;4.25;;
9160;SDS011;4615;51.340;8.288;2023-11-18T12:49:08;5.00;;;4.40;;
9160;SDS011;4615;51.340;8.288;2023-11-18T12:51:40;6.28;;;4.60;;
9160;SDS011;4615;51.340;8.288;2023-11-18T12:54:08;4.60;;;4.20;;
9160;SDS011;4615;51.340;8.288;2023-11-18T12:56:37;5.65;;;4.25;;
9160;SDS011;4615;51.340;8.288;2023-11-18T12:59:05;5.60;;;4.43;;
9160;SDS011;4615;51.340;8.288;2023-11-18T13:01:32;5.68;;;4.82;;
9160;SDS011;4615;51.340;8.288;2023-11-18T13:04:01;5.93;;;4.68;;
9160;SDS011;4615;51.340;8.288;2023-11-18T13:06:27;4.75;;;4.25;;
9160;SDS011;4615;51.340;8.288;2023-11-18T13:08:54;5.13;;;4.63;;
9160;SDS011;4615;51.340;8.288;2023-11-18T13:11:21;7.25;;;4.90;;
9160;SDS011;4615;51.340;8.288;2023-11-18T13:13:48;5.80;;;5.00;;
9160;SDS011;4615;51.340;8.288;2023-11-18T13:16:16;6.32;;;4.85;;
9160;SDS011;4615;51.340;8.288;2023-11-18T13:18:43;6.30;;;5.25;;
9160;SDS011;4615;51.340;8.288;2023-11-18T13:21:15;5.35;;;4.82;;
9160;SDS011;4615;51.340;8.288;2023-11-18T13:23:45;5.90;;;4.97;;
9160;SDS011;4615;51.340;8.288;2023-11-18T13:26:12;7.38;;;5.60;;
9160;SDS011;4615;51.340;8.288;2023-11-18T13:28:38;7.57;;;5.70;;
9160;SDS011;4615;51.340;8.288;2023-11-18T13:31:05;6.18;;;5.50;;
9160;SDS011;4615;51.340;8.288;2023-11-18T13:33:37;6.88;;;5.70;;
9160;SDS011;4615;51.340;8.288;2023-11-18T13:36:04;6.82;;;5.32;;
9160;SDS011;4615;51.340;8.288;2023-11-18T13:38:30;5.50;;;5.00;;
9160;SDS011;4615;51.340;8.288;2023-11-18T13:40:57;7.35;;;5.75;;
9160;SDS011;4615;51.340;8.288;2023-11-18T13:43:23;7.70;;;5.73;;
9160;SDS011;4615;51.340;8.288;2023-11-18T13:45:50;6.80;;;5.40;;
9160;SDS011;4615;51.340;8.288;2023-11-18T13:48:17;5.82;;;5.07;;
9160;SDS011;4615;51.340;8.288;2023-11-18T13:50:45;5.80;;;4.60;;
9160;SDS011;4615;51.340;8.288;2023-11-18T13:53:13;6.28;;;4.47;;
9160;SDS011;4615;51.340;8.288;2023-11-18T13:55:40;5.38;;;4.10;;
9160;SDS011;4615;51.340;8.288;2023-11-18T13:58:07;5.18;;;4.25;;
9160;SDS011;4615;51.340;8.288;2023-11-18T14:00:35;5.50;;;4.53;;
9160;SDS011;4615;51.340;8.288;2023-11-18T14:03:01;5.47;;;4.05;;
9160;SDS011;4615;51.340;8.288;2023-11-18T14:05:33;5.18;;;4.35;;
9160;SDS011;4615;51.340;8.288;2023-11-18T14:08:01;4.68;;;4.15;;
9160;SDS011;4615;51.340;8.288;2023-11-18T14:10:33;4.88;;;3.97;;
9160;SDS011;4615;51.340;8.288;2023-11-18T14:13:05;4.70;;;4.13;;
9160;SDS011;4615;51.340;8.288;2023-11-18T14:15:37;4.22;;;3.70;;
9160;SDS011;4615;51.340;8.288;2023-11-18T14:18:03;4.05;;;3.45;;
9160;SDS011;4615;51.340;8.288;2023-11-18T14:20:32;4.30;;;3.70;;
9160;SDS011;4615;51.340;8.288;2023-11-18T14:23:01;3.97;;;3.40;;
9160;SDS011;4615;51.340;8.288;2023-11-18T14:25:28;3.55;;;2.90;;
9160;SDS011;4615;51.340;8.288;2023-11-18T14:27:55;3.33;;;2.80;;
9160;SDS011;4615;51.340;8.288;2023-11-18T14:30:21;3.08;;;2.72;;
9160;SDS011;4615;51.340;8.288;2023-11-18T14:32:49;3.03;;;2.80;;
9160;SDS011;4615;51.340;8.288;2023-11-18T14:35:16;2.67;;;2.35;;
9160;SDS011;4615;51.340;8.288;2023-11-18T14:37:42;2.90;;;2.40;;
9160;SDS011;4615;51.340;8.288;2023-11-18T14:40:11;2.40;;;2.10;;
9160;SDS011;4615;51.340;8.288;2023-11-18T14:42:40;2.13;;;1.97;;
9160;SDS011;4615;51.340;8.288;2023-11-18T14:45:07;2.03;;;1.83;;
9160;SDS011;4615;51.340;8.288;2023-11-18T14:47:33;1.90;;;1.80;;
9160;SDS011;4615;51.340;8.288;2023-11-18T14:50:00;1.80;;;1.70;;
9160;SDS011;4615;51.340;8.288;2023-11-18T14:52:27;2.20;;;2.00;;
9160;SDS011;4615;51.340;8.288;2023-11-18T14:54:54;2.40;;;2.20;;
9160;SDS011;4615;51.340;8.288;2023-11-18T14:57:21;3.20;;;2.30;;
9160;SDS011;4615;51.340;8.288;2023-11-18T14:59:49;1.83;;;1.70;;
9160;SDS011;4615;51.340;8.288;2023-11-18T15:02:16;1.60;;;1.50;;
9160;SDS011;4615;51.340;8.288;2023-11-18T15:04:42;1.70;;;1.60;;
9160;SDS011;4615;51.340;8.288;2023-11-18T15:07:08;1.90;;;1.67;;
9160;SDS011;4615;51.340;8.288;2023-11-18T15:09:35;2.00;;;1.70;;